Time;durP1;ratioP1;P1;durP2;ratioP2;P2;SDS_P1;SDS_P2;PMS_P1;PMS_P2;Temp;Humidity;BMP_temperature;BMP_pressure;BME280_temperature;BME280_humidity;BME280_pressure;Samples;Min_cycle;Max_cycle;Signal;HPM_P1;HPM_P2
2022/09/04 00:00:22;;;;;;;4.70;1.70;;;17.40;88.60;;;;;;5106944;28;20067;-70
2022/09/04 00:03:03;;;;;;;4.70;1.77;;;17.30;89.00;;;;;;5105601;28;20521;-70
2022/09/04 00:05:45;;;;;;;3.85;1.70;;;17.30;89.10;;;;;;5113795;28;20061;-70
2022/09/04 00:08:54;;;;;;;5.30;1.80;;;17.20;89.20;;;;;;5095424;28;20032;-70
2022/09/04 00:11:51;;;;;;;4.10;1.50;;;17.20;89.20;;;;;;5093229;28;20052;-69
2022/09/04 00:14:21;;;;;;;4.43;1.60;;;17.10;89.60;;;;;;5093077;28;20063;-70
2022/09/04 00:17:02;;;;;;;4.00;1.65;;;17.00;89.40;;;;;;5095419;28;20032;-70
2022/09/04 00:19:36;;;;;;;4.80;1.97;;;17.10;89.60;;;;;;5108834;28;20035;-70
2022/09/04 00:22:14;;;;;;;6.25;1.90;;;17.00;90.00;;;;;;5106429;28;20318;-70
2022/09/04 00:24:47;;;;;;;3.95;1.73;;;17.00;90.10;;;;;;5100879;28;20043;-69
2022/09/04 00:27:29;;;;;;;5.43;1.77;;;17.00;90.20;;;;;;5113364;28;20479;-70
2022/09/04 00:30:03;;;;;;;4.88;1.60;;;17.00;90.30;;;;;;5113533;28;20118;-69
2022/09/04 00:32:56;;;;;;;4.60;1.77;;;17.00;90.40;;;;;;5108825;28;20441;-70
2022/09/04 00:35:30;;;;;;;5.72;1.70;;;16.90;90.40;;;;;;5113310;28;20036;-70
2022/09/04 00:38:25;;;;;;;5.22;1.70;;;16.90;90.50;;;;;;5112326;28;20112;-70
2022/09/04 00:41:03;;;;;;;4.63;2.00;;;16.90;90.40;;;;;;5113429;28;20071;-70
2022/09/04 00:43:28;;;;;;;5.53;1.85;;;16.80;90.30;;;;;;5107246;28;20095;-69
2022/09/04 00:46:25;;;;;;;4.78;1.60;;;16.80;90.50;;;;;;5075496;28;20040;-70
2022/09/04 00:48:53;;;;;;;4.07;1.60;;;16.90;91.00;;;;;;5104945;28;20035;-70
2022/09/04 00:51:29;;;;;;;5.00;1.95;;;16.80;90.40;;;;;;5117172;28;20134;-70
2022/09/04 00:54:11;;;;;;;5.53;1.85;;;16.80;91.10;;;;;;5117068;28;20041;-70
2022/09/04 00:57:12;;;;;;;5.72;1.92;;;16.80;91.10;;;;;;5112989;28;20450;-70
2022/09/04 01:00:10;;;;;;;2.95;1.55;;;16.80;91.00;;;;;;5095165;28;20036;-70
2022/09/04 01:02:50;;;;;;;5.15;1.90;;;16.80;91.00;;;;;;5104517;27;20440;-70
2022/09/04 01:05:54;;;;;;;5.35;1.88;;;16.70;91.20;;;;;;5097852;28;20488;-70
2022/09/04 01:08:45;;;;;;;5.07;1.73;;;16.70;91.30;;;;;;5086723;28;20128;-70
2022/09/04 01:11:37;;;;;;;7.07;3.05;;;16.70;91.50;;;;;;5077676;28;20089;-70
2022/09/04 01:14:51;;;;;;;4.97;1.92;;;16.60;91.60;;;;;;5079012;28;20070;-70
2022/09/04 01:17:50;;;;;;;5.30;1.85;;;16.60;91.50;;;;;;5095872;28;20488;-70
2022/09/04 01:20:19;;;;;;;7.28;2.08;;;16.60;91.90;;;;;;5096189;28;20071;-70
2022/09/04 01:23:22;;;;;;;4.25;1.80;;;16.60;91.90;;;;;;5106799;28;20492;-70
2022/09/04 01:26:18;;;;;;;5.25;2.10;;;16.50;92.30;;;;;;5114955;28;20051;-70
2022/09/04 01:29:12;;;;;;;5.03;1.90;;;16.50;92.20;;;;;;5114336;28;20040;-70
2022/09/04 01:31:51;;;;;;;4.25;1.92;;;16.50;92.20;;;;;;5104074;28;20049;-69
2022/09/04 01:34:39;;;;;;;5.93;1.98;;;16.50;92.40;;;;;;5115946;28;20035;-70
2022/09/04 01:37:09;;;;;;;5.20;2.00;;;16.40;92.40;;;;;;5113504;28;20044;-70
2022/09/04 01:39:36;;;;;;;6.43;2.05;;;16.40;92.50;;;;;;5116311;28;20434;-70
2022/09/04 01:42:13;;;;;;;7.00;2.13;;;16.40;92.40;;;;;;5114540;28;20560;-70
2022/09/04 01:44:39;;;;;;;7.50;2.15;;;16.50;92.50;;;;;;5116375;28;20040;-70
2022/09/04 01:47:17;;;;;;;4.53;1.90;;;16.50;92.80;;;;;;5114827;28;20039;-70
2022/09/04 01:50:01;;;;;;;4.65;1.90;;;16.40;92.70;;;;;;5103109;28;20054;-70
2022/09/04 01:52:38;;;;;;;5.85;2.22;;;16.50;92.70;;;;;;5099139;28;20110;-69
2022/09/04 01:55:28;;;;;;;4.35;2.10;;;16.40;92.70;;;;;;5111120;28;20081;-69
2022/09/04 01:58:14;;;;;;;5.10;2.08;;;16.50;92.60;;;;;;5100450;27;20040;-70
2022/09/04 02:00:56;;;;;;;4.80;2.03;;;16.60;92.60;;;;;;5108623;28;20040;-70
2022/09/04 02:03:59;;;;;;;5.35;2.22;;;16.50;93.00;;;;;;5094020;28;20060;-69
2022/09/04 02:06:34;;;;;;;5.85;2.20;;;16.40;92.80;;;;;;5095255;28;20046;-70
2022/09/04 02:09:18;;;;;;;6.82;2.17;;;16.40;93.10;;;;;;5102903;28;20071;-70
2022/09/04 02:11:52;;;;;;;5.13;1.73;;;16.30;93.20;;;;;;5095435;28;20121;-70
2022/09/04 02:14:41;;;;;;;5.35;2.25;;;16.30;93.40;;;;;;5094571;28;20047;-70
2022/09/04 02:17:17;;;;;;;3.97;2.28;;;16.20;93.50;;;;;;5091160;28;20051;-70
2022/09/04 02:19:59;;;;;;;3.70;2.03;;;16.10;94.00;;;;;;5112693;27;20160;-70
2022/09/04 02:22:47;;;;;;;4.20;2.03;;;16.00;94.30;;;;;;5115304;28;20483;-70
2022/09/04 02:25:45;;;;;;;6.55;2.28;;;15.90;94.60;;;;;;5115456;28;20089;-70
2022/09/04 02:28:50;;;;;;;6.07;2.35;;;16.00;94.40;;;;;;5098114;28;20152;-69
2022/09/04 02:31:28;;;;;;;5.53;2.38;;;15.90;95.30;;;;;;5105861;28;20510;-69
2022/09/04 02:34:07;;;;;;;4.05;1.88;;;15.90;95.20;;;;;;5115344;28;20123;-69
2022/09/04 02:37:02;;;;;;;4.88;2.13;;;15.80;95.30;;;;;;5114235;28;20102;-69
2022/09/04 02:39:33;;;;;;;4.63;1.90;;;15.80;95.70;;;;;;5094993;28;20044;-70
2022/09/04 02:42:22;;;;;;;4.53;2.10;;;15.80;95.40;;;;;;5094673;28;20044;-70
2022/09/04 02:45:21;;;;;;;4.45;2.03;;;15.80;95.50;;;;;;5092875;28;20051;-70
2022/09/04 02:48:23;;;;;;;4.72;2.15;;;15.80;95.80;;;;;;5076391;28;20438;-69
2022/09/04 02:50:57;;;;;;;8.05;2.30;;;15.80;95.50;;;;;;5098550;28;20050;-70
2022/09/04 02:53:29;;;;;;;6.72;1.98;;;15.80;95.60;;;;;;5113810;28;20055;-70
2022/09/04 02:55:58;;;;;;;5.30;2.20;;;15.80;95.60;;;;;;5110325;28;20485;-70
2022/09/04 02:58:52;;;;;;;4.57;2.00;;;15.80;95.70;;;;;;5094285;28;20035;-70
2022/09/04 03:01:23;;;;;;;6.07;2.28;;;15.80;96.00;;;;;;5094152;28;20115;-70
2022/09/04 03:04:12;;;;;;;4.22;2.10;;;15.80;95.60;;;;;;5114753;28;20082;-69
2022/09/04 03:07:01;;;;;;;4.50;2.10;;;15.80;95.90;;;;;;5103423;28;20085;-69
2022/09/04 03:09:48;;;;;;;6.45;2.30;;;15.70;96.30;;;;;;5109936;28;20089;-70
2022/09/04 03:12:38;;;;;;;4.35;1.95;;;15.60;96.50;;;;;;5113461;28;20048;-70
2022/09/04 03:15:38;;;;;;;8.55;2.50;;;15.60;96.60;;;;;;5114494;28;20057;-70
2022/09/04 03:18:14;;;;;;;5.88;2.13;;;15.60;96.80;;;;;;5094069;28;20032;-70
2022/09/04 03:20:57;;;;;;;6.88;2.38;;;15.50;96.70;;;;;;5092779;28;20061;-70
2022/09/04 03:23:39;;;;;;;4.47;2.08;;;15.50;96.90;;;;;;5110086;28;20100;-70
2022/09/04 03:26:10;;;;;;;4.70;2.20;;;15.50;96.70;;;;;;5109174;28;20035;-69
2022/09/04 03:29:13;;;;;;;4.43;1.88;;;15.40;97.20;;;;;;5093796;28;20032;-70
2022/09/04 03:31:57;;;;;;;6.05;2.17;;;15.40;97.00;;;;;;5093536;28;20119;-70
2022/09/04 03:34:26;;;;;;;6.68;2.35;;;15.40;96.90;;;;;;5108373;28;20043;-69
2022/09/04 03:36:57;;;;;;;4.88;2.42;;;15.40;98.00;;;;;;5094681;28;20043;-70
2022/09/04 03:39:45;;;;;;;6.03;2.28;;;15.40;98.10;;;;;;5113985;28;20392;-70
2022/09/04 03:42:36;;;;;;;5.43;2.13;;;15.40;98.70;;;;;;5112461;28;20039;-70
2022/09/04 03:45:24;;;;;;;3.78;2.00;;;15.40;98.90;;;;;;5112967;28;20055;-70
2022/09/04 03:48:04;;;;;;;4.70;2.13;;;15.40;99.30;;;;;;5105608;28;20549;-69
2022/09/04 03:50:55;;;;;;;6.00;2.15;;;15.30;98.30;;;;;;5103764;28;20491;-70
2022/09/04 03:53:28;;;;;;;3.70;2.05;;;15.40;98.30;;;;;;5107937;28;20055;-69
2022/09/04 03:56:11;;;;;;;4.90;2.33;;;15.30;98.50;;;;;;5108126;28;20040;-69
2022/09/04 03:58:46;;;;;;;5.80;2.40;;;15.30;99.20;;;;;;5104487;28;20050;-70
2022/09/04 04:01:47;;;;;;;3.88;2.05;;;15.20;99.30;;;;;;5113640;28;20059;-70
2022/09/04 04:04:37;;;;;;;4.60;2.40;;;15.20;99.20;;;;;;5093397;28;20044;-70
2022/09/04 04:07:06;;;;;;;4.22;1.95;;;15.20;99.10;;;;;;5093434;28;20487;-70
2022/09/04 04:10:12;;;;;;;4.53;2.20;;;15.10;99.50;;;;;;5093263;28;20408;-69
2022/09/04 04:12:55;;;;;;;4.97;2.60;;;15.10;99.10;;;;;;5099296;28;20052;-70
2022/09/04 04:15:41;;;;;;;4.07;1.92;;;15.10;99.90;;;;;;5096164;28;20395;-70
2022/09/04 04:18:20;;;;;;;4.82;2.17;;;15.10;99.90;;;;;;5107191;28;20584;-69
2022/09/04 04:21:00;;;;;;;4.68;2.25;;;15.00;99.60;;;;;;5103258;28;20034;-70
2022/09/04 04:24:11;;;;;;;5.07;2.00;;;14.90;99.70;;;;;;5116947;28;20040;-70
2022/09/04 04:26:39;;;;;;;5.80;2.22;;;14.90;99.30;;;;;;5054770;28;20056;-69
2022/09/04 04:29:26;;;;;;;5.57;2.47;;;14.90;99.10;;;;;;5107147;28;20491;-69
2022/09/04 04:32:16;;;;;;;4.65;2.30;;;14.90;99.90;;;;;;5116693;28;20075;-69
2022/09/04 04:34:52;;;;;;;6.15;2.28;;;14.80;99.90;;;;;;5096600;28;20088;-70
2022/09/04 04:37:49;;;;;;;6.28;2.50;;;14.70;99.90;;;;;;5129779;27;20051;-70
2022/09/04 04:40:14;;;;;;;6.05;2.53;;;14.70;99.70;;;;;;5078903;28;20047;-70
2022/09/04 04:42:40;;;;;;;5.32;2.30;;;14.70;99.90;;;;;;5110305;28;20067;-70
2022/09/04 04:48:22;;;;;;;4.32;2.13;;;14.70;99.90;;;;;;5108397;28;20036;-70
2022/09/04 04:51:25;;;;;;;6.00;2.38;;;14.60;99.90;;;;;;5105719;28;20374;-70
2022/09/04 04:54:12;;;;;;;5.45;2.20;;;14.50;99.90;;;;;;5106752;28;20518;-70
2022/09/04 04:56:49;;;;;;;5.22;2.22;;;14.50;99.90;;;;;;5108767;28;20488;-70
2022/09/04 04:59:42;;;;;;;5.50;2.30;;;14.40;99.90;;;;;;5095325;28;20039;-70
2022/09/04 05:02:27;;;;;;;6.35;2.50;;;14.40;99.90;;;;;;5111902;28;20377;-70
2022/09/04 05:05:16;;;;;;;4.57;2.40;;;14.40;99.90;;;;;;5106493;28;20093;-70
2022/09/04 05:08:02;;;;;;;5.53;2.53;;;14.40;99.90;;;;;;5113034;28;20040;-70
2022/09/04 05:10:31;;;;;;;5.75;2.33;;;14.50;99.90;;;;;;5096377;28;20044;-70
2022/09/04 05:13:19;;;;;;;5.22;2.33;;;14.50;99.90;;;;;;5111570;28;20066;-70
2022/09/04 05:16:03;;;;;;;5.40;2.30;;;14.60;99.90;;;;;;5097099;28;20059;-69
2022/09/04 05:18:58;;;;;;;4.85;2.38;;;14.50;99.90;;;;;;5143205;27;20093;-69
2022/09/04 05:21:30;;;;;;;7.05;2.47;;;14.50;99.90;;;;;;5109679;28;20491;-70
2022/09/04 05:24:04;;;;;;;4.70;2.50;;;14.50;99.90;;;;;;5093753;28;20090;-70
2022/09/04 05:26:59;;;;;;;5.70;2.40;;;14.50;99.90;;;;;;5116328;28;20115;-70
2022/09/04 05:29:57;;;;;;;4.65;2.40;;;14.50;99.90;;;;;;5107345;28;20049;-70
2022/09/04 05:32:31;;;;;;;7.22;2.72;;;14.50;99.90;;;;;;5114198;28;20093;-69
2022/09/04 05:35:13;;;;;;;5.82;2.55;;;14.50;99.90;;;;;;5096986;28;20396;-69
2022/09/04 05:37:56;;;;;;;6.25;2.45;;;14.50;99.90;;;;;;5112168;28;20508;-69
2022/09/04 05:40:57;;;;;;;5.13;2.90;;;14.60;99.90;;;;;;5113979;28;20047;-69
2022/09/04 05:43:48;;;;;;;4.80;2.60;;;14.60;99.90;;;;;;5031522;28;20036;-69
2022/09/04 05:46:34;;;;;;;6.38;2.90;;;14.70;99.90;;;;;;5092921;28;20054;-69
2022/09/04 05:49:14;;;;;;;4.55;2.70;;;14.70;99.90;;;;;;5083018;28;20123;-70
2022/09/04 05:51:40;;;;;;;6.55;2.75;;;14.70;99.90;;;;;;5103321;28;20078;-69
2022/09/04 05:54:18;;;;;;;8.25;3.00;;;14.80;99.90;;;;;;5118716;27;20071;-69
2022/09/04 05:57:05;;;;;;;5.57;2.47;;;14.80;99.90;;;;;;5108470;28;20039;-69
2022/09/04 05:59:58;;;;;;;6.68;2.85;;;14.80;99.90;;;;;;5099299;28;20043;-69
2022/09/04 06:02:51;;;;;;;6.55;2.45;;;14.80;99.90;;;;;;5113731;28;20491;-69
2022/09/04 06:05:39;;;;;;;5.22;2.53;;;14.90;99.90;;;;;;5076019;28;20059;-69
2022/09/04 06:08:11;;;;;;;8.18;2.72;;;15.00;99.90;;;;;;5112567;28;20075;-69
2022/09/04 06:10:51;;;;;;;6.07;3.75;;;15.00;99.90;;;;;;5147393;27;20083;-69
2022/09/04 06:13:39;;;;;;;7.03;2.60;;;15.10;99.90;;;;;;5074272;27;1028836;-69
2022/09/04 06:16:23;;;;;;;4.60;2.38;;;15.20;99.90;;;;;;5100882;28;20051;-69
2022/09/04 06:19:23;;;;;;;6.57;2.85;;;15.30;99.90;;;;;;5109628;28;20035;-69
2022/09/04 06:22:07;;;;;;;6.05;2.50;;;15.40;99.90;;;;;;5116345;27;20114;-69
2022/09/04 06:24:44;;;;;;;7.72;2.75;;;15.40;99.90;;;;;;5116447;27;20075;-69
2022/09/04 06:27:21;;;;;;;5.65;3.00;;;15.50;99.90;;;;;;5100077;28;20400;-69
2022/09/04 06:30:05;;;;;;;6.22;2.63;;;15.60;99.90;;;;;;5100002;28;20032;-69
2022/09/04 06:32:55;;;;;;;5.55;2.80;;;15.60;99.90;;;;;;5097612;28;20067;-69
2022/09/04 06:35:46;;;;;;;7.50;2.70;;;15.60;99.90;;;;;;5093973;28;20535;-69
2022/09/04 06:38:57;;;;;;;7.35;3.30;;;15.60;99.90;;;;;;5109867;28;20038;-68
2022/09/04 06:41:34;;;;;;;6.28;2.97;;;15.70;99.90;;;;;;5099141;28;20111;-69
2022/09/04 06:44:14;;;;;;;7.10;3.00;;;15.70;99.90;;;;;;5112456;28;20046;-69
2022/09/04 06:46:50;;;;;;;7.57;2.90;;;15.70;99.90;;;;;;5097835;28;20074;-69
2022/09/04 06:49:39;;;;;;;7.00;3.10;;;15.70;99.90;;;;;;5113841;28;20522;-69
2022/09/04 06:52:10;;;;;;;5.30;2.60;;;15.70;99.90;;;;;;5110815;28;20111;-69
2022/09/04 06:54:59;;;;;;;5.90;2.90;;;15.80;99.90;;;;;;5102936;28;20115;-69
2022/09/04 06:57:49;;;;;;;7.32;3.42;;;15.80;99.90;;;;;;5108799;28;20039;-69
2022/09/04 07:00:17;;;;;;;8.73;3.20;;;15.90;99.90;;;;;;5111694;28;20040;-69
2022/09/04 07:02:51;;;;;;;6.03;2.90;;;16.00;99.90;;;;;;5110259;28;20040;-69
2022/09/04 07:05:28;;;;;;;5.93;2.60;;;16.00;99.90;;;;;;5114112;28;20031;-69
2022/09/04 07:08:33;;;;;;;5.72;2.92;;;16.10;99.90;;;;;;5114592;28;20475;-69
2022/09/04 07:11:19;;;;;;;5.38;2.63;;;16.20;99.90;;;;;;5111745;27;20043;-69
2022/09/04 07:14:15;;;;;;;7.68;3.17;;;16.20;99.90;;;;;;5093615;28;20059;-69
2022/09/04 07:17:21;;;;;;;5.75;3.10;;;16.20;99.90;;;;;;5097322;28;20068;-69
2022/09/04 07:20:12;;;;;;;6.32;3.00;;;16.20;99.90;;;;;;5103141;28;20036;-69
2022/09/04 07:22:52;;;;;;;6.75;3.13;;;16.30;99.90;;;;;;5101932;28;20139;-69
2022/09/04 07:25:48;;;;;;;5.53;2.85;;;16.40;99.90;;;;;;5094026;28;20028;-69
2022/09/04 07:28:32;;;;;;;6.78;3.00;;;16.50;99.90;;;;;;5107366;28;20051;-68
2022/09/04 07:31:14;;;;;;;9.30;3.63;;;16.50;99.90;;;;;;5099338;28;20038;-69
2022/09/04 07:33:57;;;;;;;;;;;16.60;99.90;;;;;;5096159;28;20407;-69
2022/09/04 07:36:53;;;;;;;4.82;2.60;;;16.60;99.90;;;;;;5102773;27;20371;-69
2022/09/04 07:39:24;;;;;;;5.70;2.80;;;16.70;99.90;;;;;;5092964;28;20072;-69
2022/09/04 07:42:17;;;;;;;5.45;2.63;;;16.70;99.90;;;;;;5096062;28;20126;-69
2022/09/04 07:45:05;;;;;;;4.82;2.90;;;16.90;99.90;;;;;;5110621;28;20048;-69
2022/09/04 07:47:46;;;;;;;5.47;2.90;;;17.00;99.90;;;;;;5101320;28;20032;-69
2022/09/04 07:50:22;;;;;;;5.55;2.88;;;17.10;99.90;;;;;;5101730;28;20044;-69
2022/09/04 07:52:53;;;;;;;7.82;3.30;;;17.20;99.90;;;;;;5100356;28;20068;-69
2022/09/04 07:55:35;;;;;;;6.85;2.63;;;17.30;99.90;;;;;;5109286;28;20060;-69
2022/09/04 07:58:10;;;;;;;6.53;2.80;;;17.40;99.90;;;;;;5080590;28;20101;-69
2022/09/04 08:00:55;;;;;;;6.07;2.92;;;17.50;99.90;;;;;;5091238;28;20052;-69
2022/09/04 08:03:41;;;;;;;7.35;2.80;;;17.70;99.90;;;;;;5081247;28;20047;-69
2022/09/04 08:06:37;;;;;;;5.63;3.00;;;17.80;99.90;;;;;;5111195;28;20133;-69
2022/09/04 08:09:16;;;;;;;7.20;2.88;;;18.10;99.90;;;;;;5089540;28;20113;-69
2022/09/04 08:11:44;;;;;;;6.93;2.90;;;18.20;99.80;;;;;;5101024;28;20411;-69
2022/09/04 08:14:47;;;;;;;6.85;3.00;;;18.30;99.90;;;;;;5109424;28;20108;-69
2022/09/04 08:17:40;;;;;;;5.97;2.50;;;18.40;99.50;;;;;;5109612;28;20065;-70
2022/09/04 08:20:31;;;;;;;7.97;2.95;;;18.50;99.30;;;;;;5110938;28;20730;-69
2022/09/04 08:23:29;;;;;;;7.03;2.70;;;18.70;98.30;;;;;;5104895;28;20048;-69
2022/09/04 08:26:28;;;;;;;7.55;2.92;;;18.70;99.20;;;;;;5107025;28;20085;-69
2022/09/04 08:29:25;;;;;;;7.60;2.70;;;18.80;99.10;;;;;;5091726;28;20036;-76
2022/09/04 08:32:30;;;;;;;6.57;2.60;;;18.90;99.20;;;;;;5098760;28;20119;-69
2022/09/04 08:35:20;;;;;;;5.03;2.70;;;19.20;98.60;;;;;;5092230;28;20044;-69
2022/09/04 08:38:13;;;;;;;6.00;2.50;;;19.20;98.80;;;;;;5111986;28;20092;-69
2022/09/04 08:41:16;;;;;;;7.63;2.60;;;19.30;98.70;;;;;;5109609;28;20039;-69
2022/09/04 08:43:59;;;;;;;5.55;2.10;;;19.40;98.60;;;;;;5099177;28;20048;-69
2022/09/04 08:46:53;;;;;;;5.05;2.40;;;19.50;98.50;;;;;;5092277;28;20166;-69
2022/09/04 08:49:34;;;;;;;5.88;2.10;;;19.60;97.80;;;;;;5100231;28;20032;-69
2022/09/04 08:52:30;;;;;;;5.53;2.50;;;19.80;97.90;;;;;;5108103;28;20107;-69
2022/09/04 08:55:11;;;;;;;5.63;2.47;;;19.90;97.10;;;;;;5094428;28;20040;-69
2022/09/04 08:57:55;;;;;;;6.15;2.63;;;20.00;97.30;;;;;;5112719;28;20144;-69
2022/09/04 09:00:28;;;;;;;7.35;2.30;;;20.10;97.60;;;;;;5099109;28;20039;-69
2022/09/04 09:03:18;;;;;;;6.85;2.40;;;20.20;97.30;;;;;;5107826;28;20075;-69
2022/09/04 09:06:05;;;;;;;7.53;2.67;;;20.40;97.10;;;;;;5112790;28;20122;-69
2022/09/04 09:09:04;;;;;;;5.10;2.60;;;20.50;96.40;;;;;;5096564;28;20142;-69
2022/09/04 09:11:38;;;;;;;5.30;2.20;;;20.70;95.80;;;;;;5108959;28;20152;-70
2022/09/04 09:14:23;;;;;;;5.55;2.42;;;20.80;96.40;;;;;;5095510;28;20055;-69
2022/09/04 09:16:59;;;;;;;4.97;2.20;;;20.90;96.00;;;;;;5095646;28;20044;-69
2022/09/04 09:19:36;;;;;;;4.68;1.90;;;21.00;95.90;;;;;;5110357;28;20075;-69
2022/09/04 09:22:44;;;;;;;4.13;2.03;;;21.20;95.90;;;;;;5101129;28;20044;-69
2022/09/04 09:25:19;;;;;;;4.00;2.20;;;21.30;95.40;;;;;;5113465;28;20046;-69
2022/09/04 09:28:04;;;;;;;5.20;2.22;;;21.30;94.80;;;;;;5096976;28;20036;-70
2022/09/04 09:30:58;;;;;;;4.15;2.25;;;21.40;94.70;;;;;;5113233;28;20035;-70
2022/09/04 09:33:39;;;;;;;5.40;2.28;;;21.50;93.80;;;;;;5113878;28;20106;-69
2022/09/04 09:36:11;;;;;;;4.40;2.30;;;21.60;94.80;;;;;;5107878;28;20078;-69
2022/09/04 09:39:08;;;;;;;4.93;2.28;;;21.60;94.00;;;;;;5108518;28;20813;-69
2022/09/04 09:42:01;;;;;;;5.78;2.10;;;21.70;94.40;;;;;;5095526;28;20081;-69
2022/09/04 09:44:40;;;;;;;5.03;2.05;;;21.80;94.30;;;;;;5101962;27;20051;-69
2022/09/04 09:47:29;;;;;;;3.97;1.70;;;21.90;93.00;;;;;;5099936;27;20051;-69
2022/09/04 09:50:23;;;;;;;5.05;2.00;;;21.80;92.30;;;;;;5082736;28;20040;-69
2022/09/04 09:53:20;;;;;;;5.25;2.10;;;22.00;93.80;;;;;;5103611;27;20040;-69
2022/09/04 09:56:16;;;;;;;5.68;1.98;;;22.20;93.10;;;;;;5112815;28;20488;-69
2022/09/04 09:59:27;;;;;;;4.65;2.00;;;22.30;92.80;;;;;;5112931;28;20039;-69
2022/09/04 10:02:44;;;;;;;5.45;2.17;;;22.30;92.30;;;;;;5113168;28;20046;-69
2022/09/04 10:05:44;;;;;;;5.78;2.03;;;22.40;92.30;;;;;;5063579;28;20056;-69
2022/09/04 10:08:21;;;;;;;5.47;2.28;;;22.40;92.30;;;;;;5058791;28;20047;-69
2022/09/04 10:11:01;;;;;;;4.53;2.00;;;22.50;91.40;;;;;;5089469;28;20087;-69
2022/09/04 10:13:52;;;;;;;5.15;2.00;;;22.60;92.50;;;;;;5127410;27;20415;-78
2022/09/04 10:16:29;;;;;;;4.63;2.00;;;22.70;91.70;;;;;;5111029;28;20075;-68
2022/09/04 10:19:25;;;;;;;5.97;2.20;;;22.70;91.00;;;;;;5092351;28;20091;-68
2022/09/04 10:22:19;;;;;;;5.95;1.90;;;22.90;92.20;;;;;;5095893;28;20105;-69
2022/09/04 10:25:22;;;;;;;5.53;1.83;;;23.00;91.20;;;;;;5103280;28;20055;-69
2022/09/04 10:28:07;;;;;;;5.15;2.20;;;23.20;90.60;;;;;;5075334;28;20039;-69
2022/09/04 10:31:03;;;;;;;4.85;1.98;;;23.30;90.80;;;;;;5079094;28;20040;-69
2022/09/04 10:33:50;;;;;;;6.35;1.80;;;23.20;89.10;;;;;;5105094;28;20046;-68
2022/09/04 10:36:42;;;;;;;4.65;2.00;;;23.30;90.10;;;;;;5092759;28;20044;-69
2022/09/04 10:42:19;;;;;;;6.43;2.20;;;23.40;89.70;;;;;;5109664;27;20051;-69
2022/09/04 10:44:57;;;;;;;3.95;1.88;;;23.60;85.70;;;;;;5092726;28;20055;-69
2022/09/04 10:48:04;;;;;;;4.63;2.03;;;23.50;86.90;;;;;;5111871;27;20036;-69
2022/09/04 10:50:37;;;;;;;5.25;1.90;;;23.40;87.80;;;;;;5113845;28;20100;-69
2022/09/04 10:53:19;;;;;;;3.85;1.80;;;23.50;86.60;;;;;;5114587;28;20079;-69
2022/09/04 10:56:15;;;;;;;4.07;1.98;;;23.60;87.20;;;;;;5113177;28;20054;-69
2022/09/04 10:58:43;;;;;;;3.55;1.90;;;23.70;85.70;;;;;;5114409;28;20074;-69
2022/09/04 11:01:47;;;;;;;4.28;1.88;;;23.70;86.20;;;;;;5109922;28;20101;-69
2022/09/04 11:04:15;;;;;;;6.57;1.83;;;23.80;85.10;;;;;;5100251;28;20075;-69
2022/09/04 11:07:02;;;;;;;4.72;2.17;;;23.70;83.70;;;;;;5113007;28;20050;-69
2022/09/04 11:09:42;;;;;;;3.33;1.88;;;23.60;83.20;;;;;;5108028;27;20028;-69
2022/09/04 11:12:20;;;;;;;5.15;1.83;;;23.70;85.40;;;;;;5105764;27;20491;-69
2022/09/04 11:15:18;;;;;;;4.20;2.00;;;23.80;83.40;;;;;;5099737;28;20075;-69
2022/09/04 11:17:43;;;;;;;4.72;1.90;;;23.90;83.10;;;;;;5075384;28;20055;-69
2022/09/04 11:20:32;;;;;;;5.18;1.63;;;24.00;83.00;;;;;;5097871;28;20035;-69
2022/09/04 11:23:04;;;;;;;3.65;1.60;;;24.00;82.90;;;;;;5099687;28;20039;-70
2022/09/04 11:25:38;;;;;;;5.57;2.00;;;24.10;82.90;;;;;;5092990;28;20038;-69
2022/09/04 11:28:19;;;;;;;4.80;1.90;;;24.10;82.80;;;;;;5138869;27;20036;-69
2022/09/04 11:30:47;;;;;;;6.88;2.00;;;24.10;83.20;;;;;;5101003;28;20044;-70
2022/09/04 11:33:39;;;;;;;3.90;1.65;;;24.10;82.70;;;;;;5105115;28;20514;-70
2022/09/04 11:36:51;;;;;;;4.40;1.75;;;24.10;80.90;;;;;;5092376;28;20036;-69
2022/09/04 11:39:29;;;;;;;4.22;2.00;;;24.20;80.80;;;;;;5101552;28;20119;-70
2022/09/04 11:42:24;;;;;;;5.05;1.83;;;24.30;82.30;;;;;;5105099;28;20036;-70
2022/09/04 11:45:37;;;;;;;3.90;1.90;;;24.40;81.30;;;;;;5092184;28;20048;-69
2022/09/04 11:48:40;;;;;;;3.53;1.80;;;24.50;79.80;;;;;;5067840;28;20571;-69
2022/09/04 11:51:35;;;;;;;4.95;1.80;;;24.50;80.60;;;;;;5091823;28;20028;-70
2022/09/04 11:54:28;;;;;;;4.93;1.70;;;24.50;80.50;;;;;;5091732;28;20115;-70
2022/09/04 11:57:30;;;;;;;4.57;1.58;;;24.50;80.10;;;;;;5099588;28;20046;-70
2022/09/04 12:00:04;;;;;;;6.07;2.03;;;24.50;76.90;;;;;;5092257;28;20035;-70
2022/09/04 12:03:13;;;;;;;7.68;2.10;;;24.50;80.40;;;;;;5091994;28;20392;-70
2022/09/04 12:06:03;;;;;;;3.70;1.75;;;24.70;78.00;;;;;;5092865;28;20066;-70
2022/09/04 12:08:57;;;;;;;5.45;1.88;;;24.60;78.30;;;;;;5093113;28;20028;-69
2022/09/04 12:12:09;;;;;;;4.63;1.88;;;24.50;81.20;;;;;;5095759;28;20039;-69
2022/09/04 12:14:53;;;;;;;5.00;1.70;;;24.60;82.40;;;;;;5096752;28;20044;-69
2022/09/04 12:17:38;;;;;;;7.60;1.90;;;24.70;78.90;;;;;;5094651;28;20044;-70
2022/09/04 12:20:24;;;;;;;5.00;1.98;;;24.70;80.30;;;;;;5094879;28;20438;-70
2022/09/04 12:23:03;;;;;;;3.40;1.75;;;24.70;80.00;;;;;;5104277;28;20047;-69
2022/09/04 12:25:50;;;;;;;3.25;1.65;;;24.70;81.10;;;;;;5109179;28;20043;-70
2022/09/04 12:28:18;;;;;;;3.95;1.90;;;24.70;80.10;;;;;;5100896;28;20504;-70
2022/09/04 12:31:13;;;;;;;3.75;1.80;;;24.70;80.30;;;;;;5101325;28;20055;-70
2022/09/04 12:33:45;;;;;;;5.57;1.70;;;24.70;80.20;;;;;;5095598;28;20044;-70
2022/09/04 12:37:04;;;;;;;5.20;2.00;;;24.70;79.50;;;;;;5096987;28;20474;-70
2022/09/04 12:40:01;;;;;;;3.42;1.80;;;24.70;79.10;;;;;;5051390;28;20517;-69
2022/09/04 12:42:47;;;;;;;4.10;1.60;;;24.80;80.30;;;;;;5102634;28;20043;-70
2022/09/04 12:45:22;;;;;;;3.17;1.73;;;24.80;80.70;;;;;;5097067;28;20484;-70
2022/09/04 12:48:29;;;;;;;6.47;2.05;;;24.80;81.20;;;;;;5089203;28;20039;-70
2022/09/04 12:51:11;;;;;;;4.88;1.80;;;24.80;80.90;;;;;;5095114;28;20044;-70
2022/09/04 12:53:56;;;;;;;3.40;1.70;;;25.00;79.80;;;;;;5096855;28;20548;-70
2022/09/04 12:56:25;;;;;;;3.03;1.70;;;25.00;78.50;;;;;;5096747;28;20035;-70
2022/09/04 12:59:00;;;;;;;3.40;1.90;;;24.90;77.70;;;;;;5097098;28;20401;-70
2022/09/04 13:01:50;;;;;;;2.60;1.70;;;25.00;80.90;;;;;;5114914;27;20585;-70
2022/09/04 13:04:21;;;;;;;2.35;1.63;;;25.00;80.00;;;;;;5096150;28;20056;-70
2022/09/04 13:07:07;;;;;;;4.90;1.80;;;25.00;79.50;;;;;;5118813;27;20032;-70
2022/09/04 13:09:58;;;;;;;4.07;1.80;;;25.00;79.00;;;;;;5104667;28;20056;-70
2022/09/04 13:12:41;;;;;;;3.38;1.75;;;25.00;78.40;;;;;;5096091;28;20036;-70
2022/09/04 13:15:27;;;;;;;3.30;1.80;;;25.00;79.30;;;;;;5098833;28;20119;-70
2022/09/04 13:17:57;;;;;;;4.43;2.00;;;25.00;78.30;;;;;;5103402;28;20063;-69
2022/09/04 13:20:41;;;;;;;3.40;1.80;;;25.00;77.90;;;;;;5104507;28;20047;-70
2022/09/04 13:23:12;;;;;;;3.72;1.85;;;25.00;78.80;;;;;;5096854;28;20393;-70
2022/09/04 13:26:02;;;;;;;3.08;1.90;;;25.10;78.20;;;;;;5104652;28;20040;-70
2022/09/04 13:28:40;;;;;;;3.10;2.00;;;25.10;77.90;;;;;;5100998;28;20047;-70
2022/09/04 13:31:17;;;;;;;3.65;1.90;;;25.20;77.30;;;;;;5107434;28;20036;-70
2022/09/04 13:34:14;;;;;;;4.70;2.10;;;25.10;75.70;;;;;;5094324;28;20123;-70
2022/09/04 13:37:06;;;;;;;3.97;2.10;;;25.00;76.20;;;;;;5107516;28;20042;-70
2022/09/04 13:39:47;;;;;;;5.38;2.10;;;25.00;79.40;;;;;;5096791;28;20492;-70
2022/09/04 13:42:51;;;;;;;2.60;1.85;;;25.00;77.80;;;;;;5096999;28;20101;-70
2022/09/04 13:45:22;;;;;;;6.10;2.45;;;25.00;78.40;;;;;;5097163;28;20044;-70
2022/09/04 13:48:19;;;;;;;5.13;2.40;;;25.00;81.10;;;;;;5095561;28;20082;-70
2022/09/04 13:50:56;;;;;;;3.90;1.83;;;25.00;79.20;;;;;;5102296;28;20114;-69
2022/09/04 13:53:41;;;;;;;4.72;1.90;;;25.00;79.00;;;;;;5093627;28;20040;-70
2022/09/04 13:56:15;;;;;;;5.78;1.88;;;25.00;78.40;;;;;;5076110;28;20039;-69
2022/09/04 13:58:50;;;;;;;3.58;1.90;;;25.00;79.50;;;;;;5102136;28;20446;-69
2022/09/04 14:01:20;;;;;;;3.13;1.90;;;25.00;77.70;;;;;;5094453;28;20067;-70
2022/09/04 14:03:55;;;;;;;4.97;1.90;;;25.00;78.00;;;;;;5096242;28;20621;-70
2022/09/04 14:06:23;;;;;;;4.60;2.00;;;25.00;77.20;;;;;;5117141;27;20089;-69
2022/09/04 14:08:54;;;;;;;3.85;1.73;;;25.00;76.30;;;;;;5101738;28;20028;-70
2022/09/04 14:11:53;;;;;;;4.57;1.83;;;25.00;77.70;;;;;;5094954;28;20035;-70
2022/09/04 14:14:32;;;;;;;3.65;1.92;;;25.00;77.70;;;;;;5094943;28;20056;-70
2022/09/04 14:16:58;;;;;;;2.78;2.00;;;25.00;77.90;;;;;;5094830;28;20123;-70
2022/09/04 14:19:53;;;;;;;3.80;1.88;;;25.00;77.80;;;;;;5107282;28;20411;-70
2022/09/04 14:22:22;;;;;;;4.30;2.00;;;24.90;78.70;;;;;;5094171;28;20064;-70
2022/09/04 14:25:06;;;;;;;5.43;2.25;;;24.90;78.70;;;;;;5102943;28;20102;-70
2022/09/04 14:27:56;;;;;;;4.15;2.15;;;25.00;79.30;;;;;;5097819;28;20055;-70